createdAt,value
2022-11-07T00:01:23.304Z,0.44
2022-11-07T00:03:54.398Z,0.48
2022-11-07T00:06:21.668Z,0.42
2022-11-07T00:08:49.630Z,0.54
2022-11-07T00:11:17.008Z,0.58
2022-11-07T00:13:44.118Z,0.42
2022-11-07T00:16:11.791Z,0.66
2022-11-07T00:18:39.163Z,0.60
2022-11-07T00:21:08.949Z,0.72
2022-11-07T00:23:39.253Z,0.60
2022-11-07T00:26:09.278Z,0.57
2022-11-07T00:28:38.760Z,0.61
2022-11-07T00:31:07.398Z,0.67
2022-11-07T00:33:35.354Z,0.71
2022-11-07T00:36:02.843Z,0.85
2022-11-07T00:38:30.303Z,0.83
2022-11-07T00:40:59.228Z,0.96
2022-11-07T00:43:27.538Z,0.98
2022-11-07T00:45:55.320Z,1.02
2022-11-07T00:48:22.790Z,0.81
2022-11-07T00:50:50.280Z,0.99
2022-11-07T00:53:17.675Z,0.99
2022-11-07T00:55:45.134Z,1.05
2022-11-07T00:58:14.249Z,0.97
2022-11-07T01:00:43.513Z,1.14
2022-11-07T01:03:29.056Z,1.01
2022-11-07T01:06:01.255Z,1.11
2022-11-07T01:08:29.134Z,0.96
2022-11-07T01:10:57.443Z,1.07
2022-11-07T01:13:25.391Z,1.12
2022-11-07T01:15:52.827Z,0.95
2022-11-07T01:18:19.882Z,0.94
2022-11-07T01:20:47.602Z,0.94
2022-11-07T01:23:15.246Z,0.90
2022-11-07T01:25:42.975Z,0.98
2022-11-07T01:28:10.284Z,0.88
2022-11-07T01:30:42.813Z,0.93
2022-11-07T01:33:11.018Z,1.07
2022-11-07T01:35:39.023Z,1.11
2022-11-07T01:38:06.803Z,1.08
2022-11-07T01:40:56.728Z,1.10
2022-11-07T01:43:41.007Z,1.02
2022-11-07T01:46:08.132Z,0.89
2022-11-07T01:48:35.546Z,1.10
2022-11-07T01:51:03.212Z,0.89
2022-11-07T01:53:30.610Z,1.05
2022-11-07T01:55:57.872Z,0.78
2022-11-07T01:58:25.103Z,0.86
2022-11-07T02:00:52.447Z,0.90
2022-11-07T02:03:21.147Z,1.03
2022-11-07T02:05:59.162Z,1.09
2022-11-07T02:08:28.230Z,1.08
2022-11-07T02:10:57.472Z,1.09
2022-11-07T02:13:28.316Z,1.11
2022-11-07T02:16:02.263Z,1.11
2022-11-07T02:18:30.711Z,0.91
2022-11-07T02:21:02.615Z,0.92
2022-11-07T02:23:38.114Z,1.03
2022-11-07T02:26:05.600Z,1.15
2022-11-07T02:28:34.657Z,1.14
2022-11-07T02:31:01.764Z,1.24
2022-11-07T02:33:28.734Z,1.21
2022-11-07T07:50:12.146Z,1.57
2022-11-07T08:07:03.737Z,2.14
